Tyro, Virginia
Current Conditions -  °F | °C
As of 12:35 AM on Sunday 26 Oct 2014 (Local Time) from KW13 Reporting Station
Clear Clear  
Wind Chill: 59°   Ceiling: Unl
Heat Index: 59°   Visibility: 10mi
Dew Point: 47°   Wind: 8mph
Humidity: 65%   Direction: 240°WSW
Pressure: 29.78"   Gusts: NA
Location:  37.81°N, 79.02°W
Report Text: KW13 260435Z AUTO 24007KT 10SM CLR 15/09 A2978 RMK AO1 T01510085
Loading
Personal Weather Stations






























Interactive Weather Map
Tropical Storm Tracking
New forecast layout! Learn more

10-Day Weather Forecast

Advertisements
Track Severe Weather on mobile